sensor_id;sensor_type;location;lat;lon;timestamp;P1;durP1;ratioP1;P2;durP2;ratioP2
39188;SDS011;24915;50.858;4.376;2022-09-01T00:02:13;7.18;;;3.38;;
39188;SDS011;24915;50.858;4.376;2022-09-01T00:04:41;7.30;;;3.90;;
39188;SDS011;24915;50.858;4.376;2022-09-01T00:07:09;11.80;;;4.45;;
39188;SDS011;24915;50.858;4.376;2022-09-01T00:09:36;7.03;;;3.88;;
39188;SDS011;24915;50.858;4.376;2022-09-01T00:12:02;4.97;;;3.50;;
39188;SDS011;24915;50.858;4.376;2022-09-01T00:14:31;7.18;;;3.60;;
39188;SDS011;24915;50.858;4.376;2022-09-01T00:17:01;6.40;;;3.55;;
39188;SDS011;24915;50.858;4.376;2022-09-01T00:19:29;9.35;;;3.78;;
39188;SDS011;24915;50.858;4.376;2022-09-01T00:21:57;8.27;;;3.88;;
39188;SDS011;24915;50.858;4.376;2022-09-01T00:24:24;6.32;;;3.97;;
39188;SDS011;24915;50.858;4.376;2022-09-01T00:26:50;6.50;;;4.22;;
39188;SDS011;24915;50.858;4.376;2022-09-01T00:29:17;10.40;;;3.60;;
39188;SDS011;24915;50.858;4.376;2022-09-01T00:31:43;11.25;;;4.05;;
39188;SDS011;24915;50.858;4.376;2022-09-01T00:34:08;9.38;;;3.90;;
39188;SDS011;24915;50.858;4.376;2022-09-01T00:36:34;7.88;;;4.13;;
39188;SDS011;24915;50.858;4.376;2022-09-01T00:39:00;13.85;;;4.32;;
39188;SDS011;24915;50.858;4.376;2022-09-01T00:41:27;9.93;;;4.65;;
39188;SDS011;24915;50.858;4.376;2022-09-01T00:43:55;6.35;;;4.25;;
39188;SDS011;24915;50.858;4.376;2022-09-01T00:46:28;9.60;;;4.75;;
39188;SDS011;24915;50.858;4.376;2022-09-01T00:49:01;14.07;;;4.47;;
39188;SDS011;24915;50.858;4.376;2022-09-01T00:51:36;9.80;;;4.18;;
39188;SDS011;24915;50.858;4.376;2022-09-01T00:54:05;9.73;;;4.35;;
39188;SDS011;24915;50.858;4.376;2022-09-01T00:56:33;12.52;;;4.22;;
39188;SDS011;24915;50.858;4.376;2022-09-01T00:59:02;11.57;;;4.82;;
39188;SDS011;24915;50.858;4.376;2022-09-01T01:01:31;10.32;;;4.25;;
39188;SDS011;24915;50.858;4.376;2022-09-01T01:03:59;7.90;;;4.25;;
39188;SDS011;24915;50.858;4.376;2022-09-01T01:06:26;8.52;;;4.18;;
39188;SDS011;24915;50.858;4.376;2022-09-01T01:08:54;7.88;;;3.97;;
39188;SDS011;24915;50.858;4.376;2022-09-01T01:11:29;8.88;;;4.03;;
39188;SDS011;24915;50.858;4.376;2022-09-01T01:14:06;11.00;;;4.15;;
39188;SDS011;24915;50.858;4.376;2022-09-01T01:16:37;9.32;;;4.05;;
39188;SDS011;24915;50.858;4.376;2022-09-01T01:19:54;8.27;;;4.20;;
39188;SDS011;24915;50.858;4.376;2022-09-01T01:22:25;10.50;;;4.38;;
39188;SDS011;24915;50.858;4.376;2022-09-01T01:25:26;6.10;;;3.42;;
39188;SDS011;24915;50.858;4.376;2022-09-01T01:28:13;10.60;;;4.20;;
39188;SDS011;24915;50.858;4.376;2022-09-01T01:30:43;5.35;;;3.67;;
39188;SDS011;24915;50.858;4.376;2022-09-01T01:33:17;9.68;;;3.78;;
39188;SDS011;24915;50.858;4.376;2022-09-01T01:35:46;5.90;;;3.33;;
39188;SDS011;24915;50.858;4.376;2022-09-01T01:38:12;10.45;;;3.72;;
39188;SDS011;24915;50.858;4.376;2022-09-01T01:40:39;8.57;;;3.90;;
39188;SDS011;24915;50.858;4.376;2022-09-01T01:43:05;4.88;;;3.65;;
39188;SDS011;24915;50.858;4.376;2022-09-01T01:45:32;8.98;;;4.15;;
39188;SDS011;24915;50.858;4.376;2022-09-01T01:47:57;11.10;;;3.78;;
39188;SDS011;24915;50.858;4.376;2022-09-01T01:50:31;8.73;;;3.38;;
39188;SDS011;24915;50.858;4.376;2022-09-01T01:53:00;7.00;;;3.45;;
39188;SDS011;24915;50.858;4.376;2022-09-01T01:55:28;6.90;;;3.85;;
39188;SDS011;24915;50.858;4.376;2022-09-01T01:57:56;7.35;;;4.15;;
39188;SDS011;24915;50.858;4.376;2022-09-01T02:00:24;5.53;;;3.58;;
39188;SDS011;24915;50.858;4.376;2022-09-01T02:02:52;7.50;;;3.88;;
39188;SDS011;24915;50.858;4.376;2022-09-01T02:05:26;6.55;;;3.45;;
39188;SDS011;24915;50.858;4.376;2022-09-01T02:08:00;7.53;;;3.60;;
39188;SDS011;24915;50.858;4.376;2022-09-01T02:10:33;7.22;;;3.58;;
39188;SDS011;24915;50.858;4.376;2022-09-01T02:13:02;10.90;;;4.20;;
39188;SDS011;24915;50.858;4.376;2022-09-01T02:15:41;7.53;;;4.28;;
39188;SDS011;24915;50.858;4.376;2022-09-01T02:18:14;8.98;;;4.00;;
39188;SDS011;24915;50.858;4.376;2022-09-01T02:20:44;8.00;;;4.00;;
39188;SDS011;24915;50.858;4.376;2022-09-01T02:23:11;5.47;;;3.72;;
39188;SDS011;24915;50.858;4.376;2022-09-01T02:25:40;6.68;;;3.65;;
39188;SDS011;24915;50.858;4.376;2022-09-01T02:28:11;10.48;;;3.88;;
39188;SDS011;24915;50.858;4.376;2022-09-01T02:30:45;7.82;;;3.72;;
39188;SDS011;24915;50.858;4.376;2022-09-01T02:33:16;12.27;;;3.80;;
39188;SDS011;24915;50.858;4.376;2022-09-01T02:35:48;6.85;;;3.90;;
39188;SDS011;24915;50.858;4.376;2022-09-01T02:38:15;6.60;;;3.80;;
39188;SDS011;24915;50.858;4.376;2022-09-01T02:40:44;6.43;;;4.03;;
39188;SDS011;24915;50.858;4.376;2022-09-01T02:43:11;9.23;;;3.50;;
39188;SDS011;24915;50.858;4.376;2022-09-01T02:45:40;5.28;;;3.30;;
39188;SDS011;24915;50.858;4.376;2022-09-01T02:48:08;10.60;;;3.70;;
39188;SDS011;24915;50.858;4.376;2022-09-01T02:50:35;8.18;;;3.97;;
39188;SDS011;24915;50.858;4.376;2022-09-01T02:53:02;9.45;;;3.88;;
39188;SDS011;24915;50.858;4.376;2022-09-01T02:55:33;11.40;;;3.53;;
39188;SDS011;24915;50.858;4.376;2022-09-01T02:58:06;12.93;;;3.83;;
39188;SDS011;24915;50.858;4.376;2022-09-01T03:00:34;7.78;;;3.85;;
39188;SDS011;24915;50.858;4.376;2022-09-01T03:03:03;10.05;;;4.10;;
39188;SDS011;24915;50.858;4.376;2022-09-01T03:05:31;7.03;;;3.88;;
39188;SDS011;24915;50.858;4.376;2022-09-01T03:08:03;11.88;;;4.40;;
39188;SDS011;24915;50.858;4.376;2022-09-01T03:10:34;9.30;;;4.50;;
39188;SDS011;24915;50.858;4.376;2022-09-01T03:13:08;11.23;;;3.97;;
39188;SDS011;24915;50.858;4.376;2022-09-01T03:15:39;10.38;;;4.05;;
39188;SDS011;24915;50.858;4.376;2022-09-01T03:18:06;9.50;;;3.65;;
39188;SDS011;24915;50.858;4.376;2022-09-01T03:20:33;8.60;;;3.83;;
39188;SDS011;24915;50.858;4.376;2022-09-01T03:23:02;6.18;;;4.15;;
39188;SDS011;24915;50.858;4.376;2022-09-01T03:25:32;12.90;;;4.32;;
39188;SDS011;24915;50.858;4.376;2022-09-01T03:27:58;7.82;;;3.90;;
39188;SDS011;24915;50.858;4.376;2022-09-01T03:30:26;11.13;;;4.72;;
39188;SDS011;24915;50.858;4.376;2022-09-01T03:32:56;8.38;;;3.88;;
39188;SDS011;24915;50.858;4.376;2022-09-01T03:35:23;5.63;;;3.60;;
39188;SDS011;24915;50.858;4.376;2022-09-01T03:37:50;6.63;;;4.25;;
39188;SDS011;24915;50.858;4.376;2022-09-01T03:40:16;6.50;;;4.35;;
39188;SDS011;24915;50.858;4.376;2022-09-01T03:42:43;6.82;;;4.95;;
39188;SDS011;24915;50.858;4.376;2022-09-01T03:45:10;11.10;;;5.10;;
39188;SDS011;24915;50.858;4.376;2022-09-01T03:47:40;7.35;;;4.65;;
39188;SDS011;24915;50.858;4.376;2022-09-01T03:50:08;9.35;;;5.15;;
39188;SDS011;24915;50.858;4.376;2022-09-01T03:52:44;10.00;;;5.32;;
39188;SDS011;24915;50.858;4.376;2022-09-01T03:55:13;11.23;;;5.07;;
39188;SDS011;24915;50.858;4.376;2022-09-01T03:57:48;10.43;;;5.22;;
39188;SDS011;24915;50.858;4.376;2022-09-01T04:00:18;12.45;;;5.70;;
39188;SDS011;24915;50.858;4.376;2022-09-01T04:02:47;12.30;;;5.32;;
39188;SDS011;24915;50.858;4.376;2022-09-01T04:05:15;10.57;;;5.22;;
39188;SDS011;24915;50.858;4.376;2022-09-01T04:07:53;9.85;;;5.70;;
39188;SDS011;24915;50.858;4.376;2022-09-01T04:10:26;12.30;;;5.55;;
39188;SDS011;24915;50.858;4.376;2022-09-01T04:12:52;10.40;;;5.43;;
39188;SDS011;24915;50.858;4.376;2022-09-01T04:15:20;12.40;;;6.13;;
39188;SDS011;24915;50.858;4.376;2022-09-01T04:17:46;13.60;;;5.43;;
39188;SDS011;24915;50.858;4.376;2022-09-01T04:20:30;10.18;;;5.53;;
39188;SDS011;24915;50.858;4.376;2022-09-01T04:23:06;12.68;;;6.05;;
39188;SDS011;24915;50.858;4.376;2022-09-01T04:25:36;11.57;;;5.78;;
39188;SDS011;24915;50.858;4.376;2022-09-01T04:28:03;10.25;;;6.10;;
39188;SDS011;24915;50.858;4.376;2022-09-01T04:30:37;11.40;;;6.32;;
39188;SDS011;24915;50.858;4.376;2022-09-01T04:33:07;10.82;;;5.15;;
39188;SDS011;24915;50.858;4.376;2022-09-01T04:35:40;12.68;;;6.30;;
39188;SDS011;24915;50.858;4.376;2022-09-01T04:38:06;12.27;;;6.30;;
39188;SDS011;24915;50.858;4.376;2022-09-01T04:40:36;17.40;;;6.90;;
39188;SDS011;24915;50.858;4.376;2022-09-01T04:43:03;11.23;;;6.25;;
39188;SDS011;24915;50.858;4.376;2022-09-01T04:45:29;13.70;;;6.00;;
39188;SDS011;24915;50.858;4.376;2022-09-01T04:47:56;14.77;;;6.53;;
39188;SDS011;24915;50.858;4.376;2022-09-01T04:50:23;17.25;;;6.50;;
39188;SDS011;24915;50.858;4.376;2022-09-01T04:52:50;16.20;;;6.30;;
39188;SDS011;24915;50.858;4.376;2022-09-01T04:55:15;12.90;;;6.55;;
39188;SDS011;24915;50.858;4.376;2022-09-01T04:57:44;11.20;;;6.43;;
39188;SDS011;24915;50.858;4.376;2022-09-01T05:00:16;13.02;;;6.90;;
39188;SDS011;24915;50.858;4.376;2022-09-01T05:02:48;13.85;;;6.18;;
39188;SDS011;24915;50.858;4.376;2022-09-01T05:05:16;11.80;;;6.43;;
39188;SDS011;24915;50.858;4.376;2022-09-01T05:07:46;12.23;;;6.32;;
39188;SDS011;24915;50.858;4.376;2022-09-01T05:10:15;12.98;;;6.65;;
39188;SDS011;24915;50.858;4.376;2022-09-01T05:12:42;13.88;;;7.18;;
39188;SDS011;24915;50.858;4.376;2022-09-01T05:15:10;15.18;;;6.60;;
39188;SDS011;24915;50.858;4.376;2022-09-01T05:17:37;12.38;;;7.43;;
39188;SDS011;24915;50.858;4.376;2022-09-01T05:20:04;12.45;;;6.65;;
39188;SDS011;24915;50.858;4.376;2022-09-01T05:22:30;13.98;;;6.95;;
39188;SDS011;24915;50.858;4.376;2022-09-01T05:24:57;12.38;;;6.90;;
39188;SDS011;24915;50.858;4.376;2022-09-01T05:27:36;19.80;;;7.05;;
39188;SDS011;24915;50.858;4.376;2022-09-01T05:30:04;15.88;;;6.88;;
39188;SDS011;24915;50.858;4.376;2022-09-01T05:32:33;23.45;;;7.60;;
39188;SDS011;24915;50.858;4.376;2022-09-01T05:35:02;17.45;;;6.82;;
39188;SDS011;24915;50.858;4.376;2022-09-01T05:37:33;16.35;;;7.70;;
39188;SDS011;24915;50.858;4.376;2022-09-01T05:40:06;17.10;;;6.60;;
39188;SDS011;24915;50.858;4.376;2022-09-01T05:42:33;19.73;;;8.05;;
39188;SDS011;24915;50.858;4.376;2022-09-01T05:45:04;16.98;;;7.28;;
39188;SDS011;24915;50.858;4.376;2022-09-01T05:47:31;22.30;;;6.93;;
39188;SDS011;24915;50.858;4.376;2022-09-01T05:50:01;17.02;;;6.70;;
39188;SDS011;24915;50.858;4.376;2022-09-01T05:52:28;22.45;;;7.15;;
39188;SDS011;24915;50.858;4.376;2022-09-01T05:54:58;19.52;;;7.20;;
39188;SDS011;24915;50.858;4.376;2022-09-01T05:57:24;14.52;;;7.05;;
39188;SDS011;24915;50.858;4.376;2022-09-01T05:59:50;14.70;;;7.38;;
39188;SDS011;24915;50.858;4.376;2022-09-01T06:02:18;13.65;;;6.97;;
39188;SDS011;24915;50.858;4.376;2022-09-01T06:04:47;20.40;;;7.25;;
39188;SDS011;24915;50.858;4.376;2022-09-01T06:07:14;13.68;;;6.60;;
39188;SDS011;24915;50.858;4.376;2022-09-01T06:09:43;15.75;;;7.18;;
39188;SDS011;24915;50.858;4.376;2022-09-01T06:12:10;13.18;;;6.90;;
39188;SDS011;24915;50.858;4.376;2022-09-01T06:14:41;15.48;;;6.80;;
39188;SDS011;24915;50.858;4.376;2022-09-01T06:17:08;12.07;;;6.63;;
39188;SDS011;24915;50.858;4.376;2022-09-01T06:19:36;17.17;;;6.70;;
39188;SDS011;24915;50.858;4.376;2022-09-01T06:22:04;14.75;;;7.20;;
39188;SDS011;24915;50.858;4.376;2022-09-01T06:24:30;13.38;;;7.10;;
39188;SDS011;24915;50.858;4.376;2022-09-01T06:26:56;12.15;;;6.80;;
39188;SDS011;24915;50.858;4.376;2022-09-01T06:29:22;13.00;;;6.70;;
39188;SDS011;24915;50.858;4.376;2022-09-01T06:31:47;16.70;;;5.97;;
39188;SDS011;24915;50.858;4.376;2022-09-01T06:34:16;15.48;;;6.18;;
39188;SDS011;24915;50.858;4.376;2022-09-01T06:36:44;16.50;;;6.60;;
39188;SDS011;24915;50.858;4.376;2022-09-01T06:39:11;12.10;;;5.75;;
39188;SDS011;24915;50.858;4.376;2022-09-01T06:41:44;13.35;;;6.18;;
39188;SDS011;24915;50.858;4.376;2022-09-01T06:44:17;11.55;;;5.82;;
39188;SDS011;24915;50.858;4.376;2022-09-01T06:46:47;9.43;;;5.38;;
39188;SDS011;24915;50.858;4.376;2022-09-01T06:49:16;12.00;;;5.90;;
39188;SDS011;24915;50.858;4.376;2022-09-01T06:51:42;18.98;;;5.82;;
39188;SDS011;24915;50.858;4.376;2022-09-01T06:54:08;11.90;;;5.05;;
39188;SDS011;24915;50.858;4.376;2022-09-01T06:56:38;15.43;;;5.55;;
39188;SDS011;24915;50.858;4.376;2022-09-01T06:59:04;15.75;;;5.60;;
39188;SDS011;24915;50.858;4.376;2022-09-01T07:01:32;13.43;;;5.53;;
39188;SDS011;24915;50.858;4.376;2022-09-01T07:03:58;15.63;;;5.75;;
39188;SDS011;24915;50.858;4.376;2022-09-01T07:06:25;10.70;;;4.97;;
39188;SDS011;24915;50.858;4.376;2022-09-01T07:08:55;10.88;;;4.93;;
39188;SDS011;24915;50.858;4.376;2022-09-01T07:11:30;13.40;;;5.90;;
39188;SDS011;24915;50.858;4.376;2022-09-01T07:13:58;18.98;;;5.75;;
39188;SDS011;24915;50.858;4.376;2022-09-01T07:16:26;13.25;;;5.25;;
39188;SDS011;24915;50.858;4.376;2022-09-01T07:18:54;9.27;;;5.18;;
39188;SDS011;24915;50.858;4.376;2022-09-01T07:21:22;15.32;;;5.47;;
39188;SDS011;24915;50.858;4.376;2022-09-01T07:23:49;8.93;;;5.07;;
39188;SDS011;24915;50.858;4.376;2022-09-01T07:26:15;12.20;;;4.57;;
39188;SDS011;24915;50.858;4.376;2022-09-01T07:28:46;13.35;;;5.13;;
39188;SDS011;24915;50.858;4.376;2022-09-01T07:31:18;9.85;;;4.50;;
39188;SDS011;24915;50.858;4.376;2022-09-01T07:33:47;12.25;;;4.70;;
39188;SDS011;24915;50.858;4.376;2022-09-01T07:36:15;11.80;;;4.75;;
39188;SDS011;24915;50.858;4.376;2022-09-01T07:38:42;8.82;;;4.25;;
39188;SDS011;24915;50.858;4.376;2022-09-01T07:41:08;6.10;;;4.20;;
39188;SDS011;24915;50.858;4.376;2022-09-01T07:43:37;7.30;;;3.67;;
39188;SDS011;24915;50.858;4.376;2022-09-01T07:46:04;11.15;;;4.50;;
39188;SDS011;24915;50.858;4.376;2022-09-01T07:48:30;11.85;;;4.13;;
39188;SDS011;24915;50.858;4.376;2022-09-01T07:50:56;11.35;;;4.45;;
39188;SDS011;24915;50.858;4.376;2022-09-01T07:53:27;14.57;;;4.82;;
39188;SDS011;24915;50.858;4.376;2022-09-01T07:55:57;11.07;;;4.47;;
39188;SDS011;24915;50.858;4.376;2022-09-01T07:58:33;8.63;;;4.70;;
39188;SDS011;24915;50.858;4.376;2022-09-01T08:01:00;12.02;;;4.72;;
39188;SDS011;24915;50.858;4.376;2022-09-01T08:03:30;12.15;;;3.97;;
39188;SDS011;24915;50.858;4.376;2022-09-01T08:06:00;9.00;;;4.60;;
39188;SDS011;24915;50.858;4.376;2022-09-01T08:08:31;9.60;;;3.65;;
39188;SDS011;24915;50.858;4.376;2022-09-01T08:10:56;7.15;;;3.65;;
39188;SDS011;24915;50.858;4.376;2022-09-01T08:13:22;6.60;;;3.40;;
39188;SDS011;24915;50.858;4.376;2022-09-01T08:15:48;6.82;;;3.25;;
39188;SDS011;24915;50.858;4.376;2022-09-01T08:18:14;6.85;;;3.53;;
39188;SDS011;24915;50.858;4.376;2022-09-01T08:20:40;8.63;;;3.53;;
39188;SDS011;24915;50.858;4.376;2022-09-01T08:23:10;9.63;;;3.40;;
39188;SDS011;24915;50.858;4.376;2022-09-01T08:25:42;12.63;;;4.13;;
39188;SDS011;24915;50.858;4.376;2022-09-01T08:28:08;9.38;;;3.10;;
39188;SDS011;24915;50.858;4.376;2022-09-01T08:30:37;6.18;;;3.42;;
39188;SDS011;24915;50.858;4.376;2022-09-01T08:33:03;10.35;;;3.08;;
39188;SDS011;24915;50.858;4.376;2022-09-01T08:35:29;5.68;;;2.85;;
39188;SDS011;24915;50.858;4.376;2022-09-01T08:37:55;7.32;;;2.40;;
39188;SDS011;24915;50.858;4.376;2022-09-01T08:40:22;7.22;;;2.58;;
39188;SDS011;24915;50.858;4.376;2022-09-01T08:45:22;6.40;;;2.30;;
39188;SDS011;24915;50.858;4.376;2022-09-01T08:47:54;8.95;;;2.47;;
39188;SDS011;24915;50.858;4.376;2022-09-01T08:50:24;3.65;;;2.90;;
39188;SDS011;24915;50.858;4.376;2022-09-01T08:52:51;12.25;;;2.75;;
39188;SDS011;24915;50.858;4.376;2022-09-01T08:58:22;5.55;;;2.15;;
39188;SDS011;24915;50.858;4.376;2022-09-01T09:00:55;9.10;;;2.53;;
39188;SDS011;24915;50.858;4.376;2022-09-01T09:06:09;4.13;;;2.22;;
39188;SDS011;24915;50.858;4.376;2022-09-01T09:16:56;6.30;;;2.08;;
39188;SDS011;24915;50.858;4.376;2022-09-01T09:22:04;6.05;;;2.30;;
39188;SDS011;24915;50.858;4.376;2022-09-01T09:27:17;4.40;;;2.20;;
39188;SDS011;24915;50.858;4.376;2022-09-01T09:32:17;6.90;;;2.10;;
39188;SDS011;24915;50.858;4.376;2022-09-01T09:34:44;6.95;;;2.20;;
39188;SDS011;24915;50.858;4.376;2022-09-01T09:42:36;8.23;;;2.75;;
39188;SDS011;24915;50.858;4.376;2022-09-01T09:45:04;8.30;;;1.80;;
39188;SDS011;24915;50.858;4.376;2022-09-01T09:47:38;6.57;;;2.15;;
39188;SDS011;24915;50.858;4.376;2022-09-01T09:50:48;7.00;;;1.88;;
39188;SDS011;24915;50.858;4.376;2022-09-01T09:53:10;4.70;;;2.10;;
39188;SDS011;24915;50.858;4.376;2022-09-01T09:56:23;4.10;;;1.85;;
39188;SDS011;24915;50.858;4.376;2022-09-01T09:58:42;4.32;;;1.80;;
39188;SDS011;24915;50.858;4.376;2022-09-01T10:03:41;4.80;;;2.25;;
39188;SDS011;24915;50.858;4.376;2022-09-01T10:06:10;3.70;;;1.63;;
39188;SDS011;24915;50.858;4.376;2022-09-01T10:08:40;6.75;;;1.60;;
39188;SDS011;24915;50.858;4.376;2022-09-01T10:11:24;2.92;;;1.75;;
39188;SDS011;24915;50.858;4.376;2022-09-01T10:14:05;3.97;;;1.33;;
39188;SDS011;24915;50.858;4.376;2022-09-01T10:16:39;3.47;;;1.75;;
39188;SDS011;24915;50.858;4.376;2022-09-01T10:19:10;3.78;;;1.40;;
39188;SDS011;24915;50.858;4.376;2022-09-01T10:21:37;2.72;;;1.38;;
39188;SDS011;24915;50.858;4.376;2022-09-01T10:26:58;6.10;;;1.40;;
39188;SDS011;24915;50.858;4.376;2022-09-01T10:32:05;3.00;;;1.35;;
39188;SDS011;24915;50.858;4.376;2022-09-01T10:34:35;2.60;;;1.60;;
39188;SDS011;24915;50.858;4.376;2022-09-01T10:37:02;1.52;;;1.42;;
39188;SDS011;24915;50.858;4.376;2022-09-01T10:39:30;4.22;;;1.42;;
39188;SDS011;24915;50.858;4.376;2022-09-01T10:41:57;1.95;;;1.50;;
39188;SDS011;24915;50.858;4.376;2022-09-01T10:44:32;3.35;;;1.48;;
39188;SDS011;24915;50.858;4.376;2022-09-01T10:47:01;5.85;;;1.38;;
39188;SDS011;24915;50.858;4.376;2022-09-01T10:52:09;2.28;;;1.30;;
39188;SDS011;24915;50.858;4.376;2022-09-01T10:57:11;11.68;;;3.40;;
39188;SDS011;24915;50.858;4.376;2022-09-01T10:59:54;4.13;;;1.40;;
39188;SDS011;24915;50.858;4.376;2022-09-01T11:02:42;2.83;;;1.52;;
39188;SDS011;24915;50.858;4.376;2022-09-01T11:08:22;1.73;;;1.35;;
39188;SDS011;24915;50.858;4.376;2022-09-01T11:11:09;2.35;;;1.15;;
39188;SDS011;24915;50.858;4.376;2022-09-01T11:13:52;4.50;;;1.23;;
39188;SDS011;24915;50.858;4.376;2022-09-01T11:16:24;3.58;;;1.20;;
39188;SDS011;24915;50.858;4.376;2022-09-01T11:18:54;5.72;;;1.27;;
39188;SDS011;24915;50.858;4.376;2022-09-01T11:21:39;2.53;;;1.58;;
39188;SDS011;24915;50.858;4.376;2022-09-01T11:27:06;3.95;;;1.40;;
39188;SDS011;24915;50.858;4.376;2022-09-01T11:32:34;2.33;;;1.40;;
39188;SDS011;24915;50.858;4.376;2022-09-01T11:35:02;1.92;;;1.20;;
39188;SDS011;24915;50.858;4.376;2022-09-01T11:37:31;1.75;;;1.40;;
39188;SDS011;24915;50.858;4.376;2022-09-01T11:39:58;8.77;;;1.20;;
39188;SDS011;24915;50.858;4.376;2022-09-01T11:45:15;3.25;;;1.50;;
39188;SDS011;24915;50.858;4.376;2022-09-01T11:47:44;3.80;;;1.40;;
39188;SDS011;24915;50.858;4.376;2022-09-01T11:50:18;5.45;;;1.30;;
39188;SDS011;24915;50.858;4.376;2022-09-01T11:55:42;1.20;;;1.10;;
39188;SDS011;24915;50.858;4.376;2022-09-01T11:58:27;2.65;;;1.40;;
39188;SDS011;24915;50.858;4.376;2022-09-01T12:00:55;5.22;;;1.40;;
39188;SDS011;24915;50.858;4.376;2022-09-01T12:03:27;4.60;;;1.40;;
39188;SDS011;24915;50.858;4.376;2022-09-01T12:05:55;5.22;;;1.30;;
39188;SDS011;24915;50.858;4.376;2022-09-01T12:08:29;2.85;;;1.60;;
39188;SDS011;24915;50.858;4.376;2022-09-01T12:13:37;1.65;;;1.55;;
39188;SDS011;24915;50.858;4.376;2022-09-01T12:16:05;1.65;;;1.50;;
39188;SDS011;24915;50.858;4.376;2022-09-01T12:18:33;3.88;;;1.70;;
39188;SDS011;24915;50.858;4.376;2022-09-01T12:21:05;3.78;;;1.75;;
39188;SDS011;24915;50.858;4.376;2022-09-01T12:23:38;5.72;;;1.45;;
39188;SDS011;24915;50.858;4.376;2022-09-01T12:26:14;5.28;;;1.42;;
39188;SDS011;24915;50.858;4.376;2022-09-01T12:28:42;3.65;;;1.50;;
39188;SDS011;24915;50.858;4.376;2022-09-01T12:31:13;3.33;;;1.63;;
39188;SDS011;24915;50.858;4.376;2022-09-01T12:33:46;3.83;;;1.30;;
39188;SDS011;24915;50.858;4.376;2022-09-01T12:39:37;4.80;;;1.40;;
39188;SDS011;24915;50.858;4.376;2022-09-01T12:41:44;6.28;;;1.40;;
39188;SDS011;24915;50.858;4.376;2022-09-01T12:44:30;2.60;;;1.42;;
39188;SDS011;24915;50.858;4.376;2022-09-01T12:46:59;2.75;;;1.52;;
39188;SDS011;24915;50.858;4.376;2022-09-01T12:57:28;5.15;;;1.40;;
39188;SDS011;24915;50.858;4.376;2022-09-01T13:03:16;3.53;;;1.13;;
39188;SDS011;24915;50.858;4.376;2022-09-01T13:05:35;2.53;;;1.38;;
39188;SDS011;24915;50.858;4.376;2022-09-01T13:08:06;4.72;;;1.60;;
39188;SDS011;24915;50.858;4.376;2022-09-01T13:10:41;2.58;;;1.60;;
39188;SDS011;24915;50.858;4.376;2022-09-01T13:13:18;2.38;;;2.10;;
39188;SDS011;24915;50.858;4.376;2022-09-01T13:15:47;4.68;;;2.10;;
39188;SDS011;24915;50.858;4.376;2022-09-01T13:18:17;3.50;;;1.45;;
39188;SDS011;24915;50.858;4.376;2022-09-01T13:20:45;4.13;;;1.80;;
39188;SDS011;24915;50.858;4.376;2022-09-01T13:23:12;5.13;;;1.50;;
39188;SDS011;24915;50.858;4.376;2022-09-01T13:25:38;6.07;;;1.50;;
39188;SDS011;24915;50.858;4.376;2022-09-01T13:28:05;5.00;;;2.20;;
39188;SDS011;24915;50.858;4.376;2022-09-01T13:30:32;1.25;;;1.13;;
39188;SDS011;24915;50.858;4.376;2022-09-01T13:32:59;2.92;;;1.30;;
39188;SDS011;24915;50.858;4.376;2022-09-01T13:35:25;3.60;;;1.67;;
39188;SDS011;24915;50.858;4.376;2022-09-01T13:37:51;2.38;;;1.40;;
39188;SDS011;24915;50.858;4.376;2022-09-01T13:40:17;3.08;;;1.35;;
39188;SDS011;24915;50.858;4.376;2022-09-01T13:42:45;3.67;;;1.88;;
39188;SDS011;24915;50.858;4.376;2022-09-01T13:45:13;1.85;;;1.40;;
39188;SDS011;24915;50.858;4.376;2022-09-01T13:47:42;3.28;;;1.50;;
39188;SDS011;24915;50.858;4.376;2022-09-01T13:50:09;3.20;;;1.50;;
39188;SDS011;24915;50.858;4.376;2022-09-01T13:52:41;5.15;;;1.42;;
39188;SDS011;24915;50.858;4.376;2022-09-01T13:55:11;1.33;;;1.13;;
39188;SDS011;24915;50.858;4.376;2022-09-01T13:57:39;4.82;;;1.40;;
39188;SDS011;24915;50.858;4.376;2022-09-01T14:00:06;3.67;;;1.25;;
39188;SDS011;24915;50.858;4.376;2022-09-01T14:02:35;6.75;;;1.60;;
39188;SDS011;24915;50.858;4.376;2022-09-01T14:05:02;10.93;;;2.13;;
39188;SDS011;24915;50.858;4.376;2022-09-01T14:07:28;3.67;;;1.60;;
39188;SDS011;24915;50.858;4.376;2022-09-01T14:09:54;3.58;;;1.30;;
39188;SDS011;24915;50.858;4.376;2022-09-01T14:12:20;1.83;;;1.40;;
39188;SDS011;24915;50.858;4.376;2022-09-01T14:14:46;2.95;;;1.50;;
39188;SDS011;24915;50.858;4.376;2022-09-01T14:17:11;3.65;;;1.30;;
39188;SDS011;24915;50.858;4.376;2022-09-01T14:19:37;2.53;;;1.40;;
39188;SDS011;24915;50.858;4.376;2022-09-01T14:22:03;2.30;;;1.10;;
39188;SDS011;24915;50.858;4.376;2022-09-01T14:24:30;2.35;;;1.10;;
39188;SDS011;24915;50.858;4.376;2022-09-01T14:26:58;2.83;;;1.40;;
39188;SDS011;24915;50.858;4.376;2022-09-01T14:29:24;4.55;;;1.25;;
39188;SDS011;24915;50.858;4.376;2022-09-01T14:31:49;3.45;;;1.40;;
39188;SDS011;24915;50.858;4.376;2022-09-01T14:34:15;2.60;;;1.02;;
39188;SDS011;24915;50.858;4.376;2022-09-01T14:36:43;5.18;;;1.50;;
39188;SDS011;24915;50.858;4.376;2022-09-01T14:39:09;1.92;;;1.20;;
39188;SDS011;24915;50.858;4.376;2022-09-01T14:41:34;1.75;;;1.50;;
39188;SDS011;24915;50.858;4.376;2022-09-01T14:44:00;4.30;;;1.55;;
39188;SDS011;24915;50.858;4.376;2022-09-01T14:46:26;2.50;;;1.98;;
39188;SDS011;24915;50.858;4.376;2022-09-01T14:48:54;1.85;;;1.75;;
39188;SDS011;24915;50.858;4.376;2022-09-01T14:51:24;1.42;;;1.30;;
39188;SDS011;24915;50.858;4.376;2022-09-01T14:53:52;4.95;;;1.38;;
39188;SDS011;24915;50.858;4.376;2022-09-01T14:56:18;8.80;;;1.70;;
39188;SDS011;24915;50.858;4.376;2022-09-01T14:58:45;4.15;;;1.60;;
39188;SDS011;24915;50.858;4.376;2022-09-01T15:01:13;6.18;;;1.63;;
39188;SDS011;24915;50.858;4.376;2022-09-01T15:03:41;4.20;;;1.40;;
39188;SDS011;24915;50.858;4.376;2022-09-01T15:06:10;3.20;;;1.10;;
39188;SDS011;24915;50.858;4.376;2022-09-01T15:08:37;2.67;;;1.30;;
39188;SDS011;24915;50.858;4.376;2022-09-01T15:11:22;1.70;;;1.60;;
39188;SDS011;24915;50.858;4.376;2022-09-01T15:13:48;4.32;;;1.50;;
39188;SDS011;24915;50.858;4.376;2022-09-01T15:16:17;4.40;;;1.40;;
39188;SDS011;24915;50.858;4.376;2022-09-01T15:18:45;10.15;;;1.50;;
39188;SDS011;24915;50.858;4.376;2022-09-01T15:21:23;4.95;;;1.27;;
39188;SDS011;24915;50.858;4.376;2022-09-01T15:23:52;4.57;;;1.08;;
39188;SDS011;24915;50.858;4.376;2022-09-01T15:26:18;3.75;;;1.20;;
39188;SDS011;24915;50.858;4.376;2022-09-01T15:28:45;1.58;;;1.30;;
39188;SDS011;24915;50.858;4.376;2022-09-01T15:31:12;1.58;;;1.48;;
39188;SDS011;24915;50.858;4.376;2022-09-01T15:33:40;2.40;;;1.42;;
39188;SDS011;24915;50.858;4.376;2022-09-01T15:36:06;4.70;;;1.30;;
39188;SDS011;24915;50.858;4.376;2022-09-01T15:38:32;2.47;;;1.27;;
39188;SDS011;24915;50.858;4.376;2022-09-01T15:40:58;7.15;;;1.45;;
39188;SDS011;24915;50.858;4.376;2022-09-01T15:43:28;8.07;;;1.23;;
39188;SDS011;24915;50.858;4.376;2022-09-01T15:45:55;1.48;;;1.38;;
39188;SDS011;24915;50.858;4.376;2022-09-01T15:48:22;4.65;;;1.90;;
39188;SDS011;24915;50.858;4.376;2022-09-01T15:50:48;4.60;;;1.65;;
39188;SDS011;24915;50.858;4.376;2022-09-01T15:53:14;4.32;;;1.80;;
39188;SDS011;24915;50.858;4.376;2022-09-01T15:55:40;5.05;;;1.40;;
39188;SDS011;24915;50.858;4.376;2022-09-01T15:58:09;4.78;;;1.58;;
39188;SDS011;24915;50.858;4.376;2022-09-01T16:00:37;3.78;;;1.60;;
39188;SDS011;24915;50.858;4.376;2022-09-01T16:03:03;5.90;;;1.70;;
39188;SDS011;24915;50.858;4.376;2022-09-01T16:05:30;5.10;;;1.30;;
39188;SDS011;24915;50.858;4.376;2022-09-01T16:07:57;10.60;;;1.42;;
39188;SDS011;24915;50.858;4.376;2022-09-01T16:10:25;3.03;;;1.40;;
39188;SDS011;24915;50.858;4.376;2022-09-01T16:12:53;3.00;;;1.48;;